createdAt,value
2022-11-10T00:02:35.112Z,9.70
2022-11-10T00:05:21.518Z,9.80
2022-11-10T00:08:08.889Z,9.80
2022-11-10T00:10:57.665Z,9.80
2022-11-10T00:14:03.587Z,9.80
2022-11-10T00:17:03.646Z,9.70
2022-11-10T00:19:49.104Z,9.70
2022-11-10T00:22:36.508Z,9.70
2022-11-10T00:25:22.213Z,9.60
2022-11-10T00:28:07.350Z,9.60
2022-11-10T00:30:52.871Z,9.50
2022-11-10T00:33:40.832Z,9.50
2022-11-10T00:36:26.398Z,9.50
2022-11-10T00:39:12.342Z,9.40
2022-11-10T00:41:58.435Z,9.40
2022-11-10T00:44:43.933Z,9.40
2022-11-10T00:47:29.486Z,9.40
2022-11-10T00:50:15.102Z,9.40
2022-11-10T00:53:00.696Z,9.40
2022-11-10T00:55:46.163Z,9.40
2022-11-10T00:58:34.115Z,9.50
2022-11-10T01:01:21.380Z,9.40
2022-11-10T01:04:07.266Z,9.40
2022-11-10T01:06:52.961Z,9.50
2022-11-10T01:09:38.801Z,9.50
2022-11-10T01:12:24.397Z,9.50
2022-11-10T01:15:10.425Z,9.50
2022-11-10T01:17:56.587Z,9.50
2022-11-10T01:20:44.900Z,9.50
2022-11-10T01:23:30.454Z,9.50
2022-11-10T01:26:17.198Z,9.50
2022-11-10T01:29:05.378Z,9.50
2022-11-10T01:31:50.751Z,9.50
2022-11-10T01:34:36.165Z,9.50
2022-11-10T01:37:21.556Z,9.50
2022-11-10T01:40:07.924Z,9.40
2022-11-10T01:42:56.873Z,9.40
2022-11-10T01:46:04.397Z,9.40
2022-11-10T01:48:59.882Z,9.40
2022-11-10T01:51:52.985Z,9.30
2022-11-10T01:54:43.526Z,9.30
2022-11-10T01:57:29.215Z,9.30
2022-11-10T02:00:15.123Z,9.30
2022-11-10T02:03:23.246Z,9.30
2022-11-10T02:06:10.439Z,9.30
2022-11-10T02:08:59.505Z,9.30
2022-11-10T02:11:46.699Z,9.30
2022-11-10T02:14:33.550Z,9.30
2022-11-10T02:17:19.112Z,9.40
2022-11-10T02:20:10.160Z,9.40
2022-11-10T02:22:55.962Z,9.50
2022-11-10T02:25:41.654Z,9.50
2022-11-10T02:28:27.891Z,9.50
2022-11-10T02:31:13.435Z,9.60
2022-11-10T02:34:01.044Z,9.60
2022-11-10T02:36:49.584Z,9.70
2022-11-10T02:39:34.818Z,9.70
2022-11-10T02:42:20.182Z,9.70
2022-11-10T02:45:06.098Z,9.70
2022-11-10T02:47:52.098Z,9.70
2022-11-10T02:50:37.480Z,9.70
2022-11-10T02:53:23.287Z,9.80
2022-11-10T02:56:09.735Z,9.80
2022-11-10T02:58:55.281Z,9.80
2022-11-10T03:01:40.843Z,9.80
2022-11-10T03:04:26.679Z,9.80
2022-11-10T03:07:12.383Z,9.90
2022-11-10T03:09:58.081Z,9.80
2022-11-10T03:12:43.523Z,9.80
2022-11-10T03:15:29.518Z,9.80
2022-11-10T03:18:14.907Z,9.70
2022-11-10T03:21:05.067Z,9.70
2022-11-10T03:23:50.621Z,9.70
2022-11-10T03:26:35.972Z,9.70
2022-11-10T03:29:21.581Z,9.60
2022-11-10T03:32:06.819Z,9.60
2022-11-10T03:34:52.585Z,9.60
2022-11-10T03:37:38.134Z,9.60
2022-11-10T03:40:25.511Z,9.60
2022-11-10T03:43:12.258Z,9.50
2022-11-10T03:45:57.819Z,9.50
2022-11-10T03:48:45.355Z,9.50
2022-11-10T03:51:34.632Z,9.40
2022-11-10T03:54:20.218Z,9.40
2022-11-10T03:57:06.233Z,9.40
2022-11-10T03:59:51.547Z,9.40
2022-11-10T04:02:38.239Z,9.40
2022-11-10T04:05:41.960Z,9.30
2022-11-10T04:08:45.529Z,9.30
2022-11-10T04:11:50.600Z,9.30
2022-11-10T04:14:54.192Z,9.20
2022-11-10T04:17:39.566Z,9.30
2022-11-10T04:20:24.740Z,9.30
2022-11-10T04:23:28.326Z,9.30
2022-11-10T04:26:30.573Z,9.20
2022-11-10T04:29:18.070Z,9.20
2022-11-10T04:32:03.923Z,9.20
2022-11-10T04:34:49.365Z,9.20
2022-11-10T04:37:35.228Z,9.20
2022-11-10T04:40:20.691Z,9.20
2022-11-10T04:43:06.443Z,9.20
2022-11-10T04:45:51.952Z,9.20
2022-11-10T04:48:37.653Z,9.20
2022-11-10T04:51:28.086Z,9.30
2022-11-10T04:54:13.790Z,9.30
2022-11-10T04:56:59.144Z,9.30
2022-11-10T04:59:44.593Z,9.30
2022-11-10T05:02:29.687Z,9.30
2022-11-10T05:05:15.372Z,9.30
2022-11-10T05:08:00.818Z,9.40
2022-11-10T05:10:46.531Z,9.40
2022-11-10T05:13:35.603Z,9.40
2022-11-10T05:16:21.176Z,9.30
2022-11-10T05:19:06.864Z,9.30
2022-11-10T05:21:52.074Z,9.30
2022-11-10T05:24:39.700Z,9.30
2022-11-10T05:27:25.141Z,9.30
2022-11-10T05:30:10.966Z,9.30
2022-11-10T05:32:57.590Z,9.30
2022-11-10T05:35:44.310Z,9.40
2022-11-10T05:38:30.380Z,9.40
2022-11-10T05:41:16.063Z,9.40
2022-11-10T05:44:03.803Z,9.40
2022-11-10T05:46:49.403Z,9.30
2022-11-10T05:49:34.807Z,9.30
2022-11-10T05:52:20.025Z,9.30
2022-11-10T05:55:06.124Z,9.30
2022-11-10T05:57:53.404Z,9.20
2022-11-10T06:00:38.952Z,9.20
2022-11-10T06:03:25.109Z,9.20
2022-11-10T06:06:11.392Z,9.20
2022-11-10T06:08:56.717Z,9.20
2022-11-10T06:11:42.339Z,9.20
2022-11-10T06:14:27.804Z,9.20
2022-11-10T06:17:13.339Z,9.10
2022-11-10T06:19:58.646Z,9.10
2022-11-10T06:22:47.763Z,9.00
2022-11-10T06:25:35.585Z,9.00
2022-11-10T06:28:21.543Z,9.00
2022-11-10T06:31:07.271Z,9.00
2022-11-10T06:33:53.120Z,9.00
2022-11-10T06:36:45.295Z,9.00
2022-11-10T06:39:30.639Z,9.00
2022-11-10T06:42:15.792Z,9.00
2022-11-10T06:45:01.768Z,8.90
2022-11-10T06:47:47.463Z,8.90
2022-11-10T06:50:34.814Z,9.00
2022-11-10T06:53:25.803Z,9.00
2022-11-10T06:56:13.571Z,9.00
2022-11-10T06:58:58.939Z,9.00
2022-11-10T07:01:44.760Z,9.00
2022-11-10T07:04:33.295Z,8.90
2022-11-10T07:07:18.706Z,9.00
2022-11-10T07:10:07.199Z,9.00
2022-11-10T07:12:58.754Z,9.00
2022-11-10T07:15:44.159Z,9.00
2022-11-10T07:18:29.757Z,9.00
2022-11-10T07:21:15.550Z,9.00
2022-11-10T07:24:00.867Z,9.10
2022-11-10T07:26:46.700Z,9.10
2022-11-10T07:29:35.161Z,9.10
2022-11-10T07:32:23.669Z,9.20
2022-11-10T07:35:09.173Z,9.10
2022-11-10T07:37:55.764Z,9.20
2022-11-10T07:40:41.555Z,9.20
2022-11-10T07:43:30.248Z,9.10
2022-11-10T07:46:15.772Z,9.20
2022-11-10T07:49:03.633Z,9.20
2022-11-10T07:51:49.245Z,9.30
2022-11-10T07:54:34.693Z,9.30
2022-11-10T07:57:20.350Z,9.30
2022-11-10T08:00:06.318Z,9.30
2022-11-10T08:02:52.585Z,9.40
2022-11-10T08:05:38.577Z,9.50
2022-11-10T08:08:24.415Z,9.60
2022-11-10T08:11:09.635Z,9.60
2022-11-10T08:13:54.947Z,9.70
2022-11-10T08:16:42.898Z,9.70
2022-11-10T08:19:28.764Z,9.80
2022-11-10T08:22:14.578Z,9.80
2022-11-10T08:25:00.119Z,9.90
2022-11-10T08:27:45.906Z,10.00
2022-11-10T08:30:35.268Z,10.00
2022-11-10T08:33:21.980Z,10.10
2022-11-10T08:36:08.669Z,10.10
2022-11-10T08:38:54.172Z,10.20
2022-11-10T08:41:40.020Z,10.20
2022-11-10T08:44:25.663Z,10.30
2022-11-10T08:47:11.292Z,10.40
2022-11-10T08:49:56.870Z,10.40
2022-11-10T08:52:42.251Z,10.60
2022-11-10T08:55:27.874Z,10.60
2022-11-10T08:58:21.608Z,10.70
2022-11-10T09:01:11.723Z,10.80
2022-11-10T09:03:59.850Z,10.90
2022-11-10T09:06:45.409Z,10.90
2022-11-10T09:09:31.235Z,10.90
2022-11-10T09:12:16.655Z,11.00
2022-11-10T09:15:05.593Z,11.00
2022-11-10T09:17:51.035Z,11.00
2022-11-10T09:20:37.631Z,11.00
2022-11-10T09:23:25.210Z,11.10
2022-11-10T09:26:11.925Z,11.10
2022-11-10T09:29:02.887Z,11.10
2022-11-10T09:31:48.886Z,11.20
2022-11-10T09:34:34.426Z,11.20
2022-11-10T09:37:58.878Z,11.20
2022-11-10T09:41:03.066Z,11.30
2022-11-10T09:44:04.923Z,11.30
2022-11-10T09:47:42.241Z,11.40
2022-11-10T09:51:01.346Z,11.40
2022-11-10T09:54:18.825Z,11.50
2022-11-10T09:57:09.580Z,11.60
2022-11-10T09:59:55.438Z,11.60
2022-11-10T10:02:48.108Z,11.70
2022-11-10T10:06:02.653Z,11.70
2022-11-10T10:09:12.729Z,11.80
2022-11-10T10:12:11.100Z,11.80
2022-11-10T10:15:15.868Z,11.90
2022-11-10T10:18:07.704Z,12.00
2022-11-10T10:21:20.979Z,12.10
2022-11-10T10:24:16.538Z,12.20
2022-11-10T10:27:19.096Z,12.20
2022-11-10T10:30:13.789Z,12.20
2022-11-10T10:33:11.896Z,12.40
2022-11-10T10:36:09.698Z,12.60
2022-11-10T10:39:01.335Z,12.70
2022-11-10T10:41:46.931Z,12.80
2022-11-10T10:44:35.243Z,12.80
2022-11-10T10:47:36.873Z,12.80
2022-11-10T10:50:35.138Z,12.80
2022-11-10T10:53:23.513Z,12.80
2022-11-10T10:56:19.052Z,12.80
2022-11-10T10:59:17.338Z,12.90
2022-11-10T11:02:05.706Z,12.90
2022-11-10T11:05:08.860Z,13.00
2022-11-10T11:08:00.728Z,13.10
2022-11-10T11:10:49.684Z,13.20
2022-11-10T11:13:35.714Z,13.30
2022-11-10T11:16:21.266Z,13.40
2022-11-10T11:19:09.235Z,13.60
2022-11-10T11:22:13.092Z,13.70
2022-11-10T11:25:27.192Z,13.70
2022-11-10T11:28:35.329Z,13.80
2022-11-10T11:31:52.413Z,13.80
2022-11-10T11:35:16.240Z,13.80
2022-11-10T11:38:08.369Z,13.90
2022-11-10T11:41:15.952Z,13.80
2022-11-10T11:44:16.878Z,13.90
2022-11-10T11:47:27.568Z,13.90
2022-11-10T11:50:34.136Z,13.90
2022-11-10T11:53:42.727Z,13.90
2022-11-10T11:56:39.039Z,14.00
2022-11-10T11:59:50.736Z,13.90
2022-11-10T12:02:58.368Z,14.10
2022-11-10T12:06:11.839Z,14.10
2022-11-10T12:09:06.587Z,14.20
2022-11-10T12:12:10.450Z,14.20
2022-11-10T12:15:33.874Z,14.30
2022-11-10T12:18:22.556Z,14.40
2022-11-10T12:21:30.334Z,14.40
2022-11-10T12:24:45.102Z,14.50
2022-11-10T12:27:41.141Z,14.60
2022-11-10T12:31:12.468Z,14.60
2022-11-10T12:34:04.855Z,14.70
2022-11-10T12:36:51.940Z,14.80
2022-11-10T12:39:37.401Z,14.90
2022-11-10T12:42:27.281Z,15.00
2022-11-10T12:45:26.863Z,15.10
2022-11-10T12:48:21.536Z,15.00
2022-11-10T12:51:30.692Z,15.10
2022-11-10T12:54:18.020Z,15.10
2022-11-10T12:57:23.532Z,15.00
2022-11-10T13:00:28.820Z,15.00
2022-11-10T13:03:24.594Z,15.00
2022-11-10T13:06:30.296Z,14.90
2022-11-10T13:09:36.825Z,15.00
2022-11-10T13:12:23.584Z,15.00
2022-11-10T13:15:40.587Z,15.00
2022-11-10T13:18:32.209Z,15.10
2022-11-10T13:21:17.641Z,15.20
2022-11-10T13:24:25.383Z,15.20
2022-11-10T13:27:13.578Z,15.30
2022-11-10T13:29:59.866Z,15.30
2022-11-10T13:32:46.560Z,15.20
2022-11-10T13:35:38.338Z,15.20
2022-11-10T13:38:33.044Z,15.20
2022-11-10T13:41:18.504Z,15.20
2022-11-10T13:44:19.920Z,15.10
2022-11-10T13:47:08.619Z,15.10
2022-11-10T13:49:57.518Z,15.00
2022-11-10T13:52:51.979Z,15.00
2022-11-10T13:55:48.680Z,14.90
2022-11-10T13:58:36.589Z,14.90
2022-11-10T14:01:30.688Z,14.90
2022-11-10T14:04:40.622Z,14.80
2022-11-10T14:07:30.118Z,14.80
2022-11-10T14:10:18.617Z,14.80
2022-11-10T14:13:41.758Z,14.70
2022-11-10T14:16:31.554Z,14.70
2022-11-10T14:19:40.040Z,14.60
2022-11-10T14:22:34.587Z,14.60
2022-11-10T14:25:39.618Z,14.50
2022-11-10T14:28:29.260Z,14.50
2022-11-10T14:31:25.896Z,14.40
2022-11-10T14:34:17.586Z,14.40
2022-11-10T14:37:04.417Z,14.40
2022-11-10T14:39:53.292Z,14.40
2022-11-10T14:42:39.391Z,14.30
2022-11-10T14:45:27.381Z,14.30
2022-11-10T14:48:19.839Z,14.30
2022-11-10T14:51:15.535Z,14.30
2022-11-10T14:54:04.403Z,14.20
2022-11-10T14:56:50.895Z,14.20
2022-11-10T14:59:38.019Z,14.20
2022-11-10T15:02:27.229Z,14.20
2022-11-10T15:05:16.737Z,14.10
2022-11-10T15:08:06.282Z,14.10
2022-11-10T15:10:59.288Z,14.10
2022-11-10T15:13:45.106Z,14.00
2022-11-10T15:16:38.788Z,13.90
2022-11-10T15:19:29.415Z,13.90
2022-11-10T15:22:30.245Z,13.80
2022-11-10T15:25:19.036Z,13.80
2022-11-10T15:28:33.244Z,13.70
2022-11-10T15:31:27.164Z,13.60
2022-11-10T15:34:46.750Z,13.50
2022-11-10T15:37:34.540Z,13.40
2022-11-10T15:40:31.839Z,13.30
2022-11-10T15:43:22.023Z,13.30
2022-11-10T15:46:24.313Z,13.10
2022-11-10T15:49:22.537Z,13.00
2022-11-10T15:52:21.842Z,12.90
2022-11-10T15:55:23.275Z,12.80
2022-11-10T15:58:29.547Z,12.80
2022-11-10T16:01:17.389Z,12.80
2022-11-10T16:04:03.233Z,12.70
2022-11-10T16:06:48.649Z,12.70
2022-11-10T16:09:34.307Z,12.60
2022-11-10T16:12:22.516Z,12.60
2022-11-10T16:15:15.297Z,12.60
2022-11-10T16:18:03.226Z,12.60
2022-11-10T16:20:50.128Z,12.60
2022-11-10T16:23:35.580Z,12.50
2022-11-10T16:26:24.004Z,12.50
2022-11-10T16:29:17.129Z,12.40
2022-11-10T16:32:03.304Z,12.40
2022-11-10T16:34:48.834Z,12.30
2022-11-10T16:37:35.171Z,12.30
2022-11-10T16:40:23.631Z,12.30
2022-11-10T16:43:17.943Z,12.30
2022-11-10T16:46:07.522Z,12.30
2022-11-10T16:48:55.784Z,12.30
2022-11-10T16:51:48.292Z,12.30
2022-11-10T16:54:34.759Z,12.30
2022-11-10T16:57:20.734Z,12.20
2022-11-10T17:00:06.737Z,12.10
2022-11-10T17:03:11.762Z,12.10
2022-11-10T17:06:00.438Z,12.10
2022-11-10T17:08:48.649Z,12.00
2022-11-10T17:11:34.436Z,12.10
2022-11-10T17:14:20.601Z,12.00
2022-11-10T17:17:09.898Z,11.90
2022-11-10T17:19:55.513Z,11.90
2022-11-10T17:22:43.671Z,11.80
2022-11-10T17:25:32.431Z,11.70
2022-11-10T17:28:19.303Z,11.70
2022-11-10T17:31:05.187Z,11.70
2022-11-10T17:33:50.926Z,11.60
2022-11-10T17:36:44.004Z,11.60
2022-11-10T17:39:35.777Z,11.50
2022-11-10T17:42:21.678Z,11.40
2022-11-10T17:45:21.211Z,11.30
2022-11-10T17:48:27.021Z,11.30
2022-11-10T17:51:52.752Z,11.20
2022-11-10T17:54:39.864Z,11.10
2022-11-10T17:57:28.556Z,11.00
2022-11-10T18:00:16.051Z,11.00
2022-11-10T18:03:02.847Z,10.90
2022-11-10T18:05:51.204Z,10.90
2022-11-10T18:08:37.834Z,10.80
2022-11-10T18:11:23.462Z,10.80
2022-11-10T18:14:10.900Z,10.70
2022-11-10T18:16:56.337Z,10.70
2022-11-10T18:19:41.668Z,10.70
2022-11-10T18:22:27.256Z,10.60
2022-11-10T18:25:12.987Z,10.60
2022-11-10T18:27:58.721Z,10.50
2022-11-10T18:30:44.398Z,10.50
2022-11-10T18:33:32.634Z,10.50
2022-11-10T18:36:18.346Z,10.50
2022-11-10T18:39:09.959Z,10.40
2022-11-10T18:42:03.590Z,10.50
2022-11-10T18:44:51.497Z,10.40
2022-11-10T18:50:44.121Z,10.40
2022-11-10T18:53:37.044Z,10.30
2022-11-10T18:56:24.487Z,10.40
2022-11-10T18:59:15.248Z,10.40
2022-11-10T19:02:01.411Z,10.40
2022-11-10T19:04:56.281Z,10.40
2022-11-10T19:07:42.194Z,10.50
2022-11-10T19:10:28.469Z,10.50
2022-11-10T19:13:15.473Z,10.50
2022-11-10T19:16:20.735Z,10.60
2022-11-10T19:19:06.574Z,10.60
2022-11-10T19:21:52.272Z,10.60
2022-11-10T19:25:00.877Z,10.60
2022-11-10T19:27:43.728Z,10.60
2022-11-10T19:30:29.379Z,10.60
2022-11-10T19:33:16.458Z,10.70
2022-11-10T19:36:07.602Z,10.70
2022-11-10T19:38:57.128Z,10.60
2022-11-10T19:41:42.493Z,10.60
2022-11-10T19:44:30.898Z,10.60
2022-11-10T19:47:16.316Z,10.60
2022-11-10T19:50:03.897Z,10.60
2022-11-10T19:52:49.355Z,10.60
2022-11-10T19:55:35.973Z,10.60
2022-11-10T19:58:28.019Z,10.60
2022-11-10T20:01:15.832Z,10.60
2022-11-10T20:04:29.901Z,10.50
2022-11-10T20:07:34.104Z,10.50
2022-11-10T20:10:26.399Z,10.50
2022-11-10T20:13:14.352Z,10.50
2022-11-10T20:16:07.005Z,10.50
2022-11-10T20:18:53.025Z,10.50
2022-11-10T20:21:38.278Z,10.50
2022-11-10T20:24:24.001Z,10.50
2022-11-10T20:27:09.524Z,10.50
2022-11-10T20:29:55.398Z,10.50
2022-11-10T20:32:40.720Z,10.50
2022-11-10T20:35:26.689Z,10.50
2022-11-10T20:38:12.330Z,10.50
2022-11-10T20:41:11.711Z,10.50
2022-11-10T20:43:57.876Z,10.60
2022-11-10T20:46:59.134Z,10.60
2022-11-10T20:49:44.993Z,10.50
2022-11-10T20:52:35.396Z,10.50
2022-11-10T20:55:36.960Z,10.50
2022-11-10T20:58:27.722Z,10.50
2022-11-10T21:01:15.327Z,10.50
2022-11-10T21:04:13.592Z,10.50
2022-11-10T21:06:59.597Z,10.50
2022-11-10T21:09:49.760Z,10.50
2022-11-10T21:12:49.661Z,10.50
2022-11-10T21:15:39.038Z,10.50
2022-11-10T21:18:36.261Z,10.40
2022-11-10T21:21:26.483Z,10.40
2022-11-10T21:24:15.240Z,10.40
2022-11-10T21:27:07.258Z,10.40
2022-11-10T21:29:53.089Z,10.40
2022-11-10T21:32:44.666Z,10.40
2022-11-10T21:38:58.693Z,10.40
2022-11-10T21:41:44.329Z,10.40
2022-11-10T21:44:30.136Z,10.30
2022-11-10T21:47:16.360Z,10.40
2022-11-10T21:50:02.040Z,10.40
2022-11-10T21:52:48.079Z,10.40
2022-11-10T21:55:33.626Z,10.40
2022-11-10T21:58:24.749Z,10.30
2022-11-10T22:01:16.304Z,10.30
2022-11-10T22:04:01.790Z,10.30
2022-11-10T22:07:05.908Z,10.30
2022-11-10T22:10:12.235Z,10.20
2022-11-10T22:13:16.232Z,10.20
2022-11-10T22:16:33.611Z,10.20
2022-11-10T22:19:19.362Z,10.10
2022-11-10T22:22:05.506Z,10.20
2022-11-10T22:24:51.195Z,10.10
2022-11-10T22:27:36.298Z,10.10
2022-11-10T22:30:21.958Z,10.10
2022-11-10T22:33:27.154Z,10.10
2022-11-10T22:36:15.401Z,10.10
2022-11-10T22:39:03.783Z,10.00
2022-11-10T22:42:08.789Z,10.00
2022-11-10T22:44:54.351Z,10.00
2022-11-10T22:47:58.746Z,9.90
2022-11-10T22:50:57.356Z,9.90
2022-11-10T22:53:43.564Z,9.90
2022-11-10T22:56:32.118Z,9.80
2022-11-10T22:59:20.987Z,9.90
2022-11-10T23:02:06.490Z,9.80
2022-11-10T23:04:52.384Z,9.80
2022-11-10T23:07:42.071Z,9.80
2022-11-10T23:10:28.117Z,9.80
2022-11-10T23:13:15.078Z,9.80
2022-11-10T23:16:15.669Z,9.80
2022-11-10T23:19:13.306Z,9.70
2022-11-10T23:21:58.501Z,9.70
2022-11-10T23:24:44.471Z,9.60
2022-11-10T23:27:32.749Z,9.60
2022-11-10T23:30:18.250Z,9.60
2022-11-10T23:33:03.777Z,9.60
2022-11-10T23:35:49.351Z,9.60
2022-11-10T23:38:36.393Z,9.60
2022-11-10T23:41:29.593Z,9.70
2022-11-10T23:44:15.384Z,9.60
2022-11-10T23:47:10.885Z,9.60
2022-11-10T23:50:03.538Z,9.70
2022-11-10T23:52:54.337Z,9.70
2022-11-10T23:55:40.893Z,9.70
2022-11-10T23:58:26.433Z,9.60
